Time;durP1;ratioP1;P1;durP2;ratioP2;P2;SDS_P1;SDS_P2;PMS_P1;PMS_P2;Temp;Humidity;BMP_temperature;BMP_pressure;BME280_temperature;BME280_humidity;BME280_pressure;Samples;Min_cycle;Max_cycle;Signal;HPM_P1;HPM_P2
2022/06/27 00:01:23;;;;;;;12.25;9.13;;;;;;;16.29;100.00;101366.19;5242289;28;20033;-72
2022/06/27 00:03:54;;;;;;;13.45;9.48;;;;;;;16.25;100.00;101356.72;5240106;28;20055;-72
2022/06/27 00:06:26;;;;;;;10.93;9.38;;;;;;;16.28;100.00;101359.13;5239371;28;20032;-72
2022/06/27 00:08:57;;;;;;;13.40;9.48;;;;;;;16.26;100.00;101356.56;5240124;28;20056;-72
2022/06/27 00:11:29;;;;;;;12.80;9.35;;;;;;;16.23;100.00;101358.69;5243408;28;20028;-71
2022/06/27 00:14:00;;;;;;;11.95;9.60;;;;;;;16.29;100.00;101352.75;5239035;28;20399;-72
2022/06/27 00:16:31;;;;;;;11.73;9.70;;;;;;;16.26;100.00;101355.69;5236500;28;20420;-71
2022/06/27 00:19:03;;;;;;;11.10;9.57;;;;;;;16.25;100.00;101364.78;5238772;28;20089;-72
2022/06/27 00:21:34;;;;;;;11.82;9.60;;;;;;;16.25;100.00;101362.94;5240459;28;20029;-72
2022/06/27 00:24:05;;;;;;;12.57;9.45;;;;;;;16.23;100.00;101367.63;5243358;28;20029;-72
2022/06/27 00:26:37;;;;;;;15.90;10.25;;;;;;;16.26;100.00;101378.13;5237427;28;20029;-71
2022/06/27 00:29:08;;;;;;;12.25;9.13;;;;;;;16.21;100.00;101379.53;5231412;28;20472;-71
2022/06/27 00:31:40;;;;;;;11.73;9.45;;;;;;;16.22;100.00;101378.53;5229316;28;20025;-72
2022/06/27 00:34:11;;;;;;;13.02;9.00;;;;;;;16.31;100.00;101376.84;5234446;28;20463;-72
2022/06/27 00:36:42;;;;;;;13.35;9.52;;;;;;;16.25;100.00;101384.47;5239154;28;20407;-72
2022/06/27 00:39:14;;;;;;;12.02;9.23;;;;;;;16.27;100.00;101382.50;5238110;28;20597;-72
2022/06/27 00:41:45;;;;;;;10.00;8.98;;;;;;;16.30;100.00;101388.59;5227115;28;20033;-72
2022/06/27 00:44:33;;;;;;;13.45;9.20;;;;;;;16.27;100.00;101390.56;5227764;28;20445;-72
2022/06/27 00:47:07;;;;;;;13.70;9.02;;;;;;;16.21;100.00;101382.22;5229164;28;20118;-71
2022/06/27 00:49:39;;;;;;;11.45;9.32;;;;;;;16.23;100.00;101389.16;5225774;28;20039;-72
2022/06/27 00:52:12;;;;;;;13.73;9.70;;;;;;;16.21;100.00;101395.69;5230745;28;20371;-72
2022/06/27 00:54:47;;;;;;;10.85;9.60;;;;;;;16.21;100.00;101399.22;5234317;28;21194;-72
2022/06/27 00:57:19;;;;;;;12.45;10.55;;;;;;;16.20;100.00;101397.53;5231036;28;20032;-72
2022/06/27 00:59:50;;;;;;;13.20;9.65;;;;;;;16.20;100.00;101393.97;5231364;28;20491;-71
2022/06/27 01:02:22;;;;;;;11.13;9.45;;;;;;;16.23;100.00;101394.53;5228678;28;20072;-71
2022/06/27 01:04:53;;;;;;;13.00;10.70;;;;;;;16.22;100.00;101391.97;5239599;28;21221;-72
2022/06/27 01:07:24;;;;;;;15.00;10.60;;;;;;;16.23;100.00;101389.16;5235929;28;20017;-72
2022/06/27 01:09:57;;;;;;;13.85;9.98;;;;;;;16.20;100.00;101389.47;5239337;28;20440;-72
2022/06/27 01:12:28;;;;;;;11.80;10.40;;;;;;;16.17;100.00;101395.09;5245443;28;20442;-72
2022/06/27 01:15:01;;;;;;;15.80;10.35;;;;;;;16.20;100.00;101402.03;5244655;28;20037;-72
2022/06/27 01:17:34;;;;;;;14.68;10.57;;;;;;;16.24;100.00;101398.06;5241137;28;20301;-71
2022/06/27 01:20:07;;;;;;;15.10;9.90;;;;;;;16.16;100.00;101401.47;5244283;28;20032;-72
2022/06/27 01:22:38;;;;;;;12.95;9.50;;;;;;;16.19;100.00;101401.22;5239742;28;20124;-71
2022/06/27 01:25:13;;;;;;;10.85;9.18;;;;;;;16.20;100.00;101408.31;5243286;28;20051;-72
2022/06/27 01:27:44;;;;;;;12.52;9.68;;;;;;;16.20;100.00;101397.53;5241551;28;20037;-72
2022/06/27 01:30:16;;;;;;;13.27;9.82;;;;;;;16.16;100.00;101396.09;5242750;28;20031;-72
2022/06/27 01:32:50;;;;;;;12.43;9.65;;;;;;;16.17;100.00;101392.41;5243925;28;20052;-72
2022/06/27 01:35:21;;;;;;;13.93;10.60;;;;;;;16.22;100.00;101389.28;5242767;28;20534;-72
2022/06/27 01:37:52;;;;;;;12.27;9.95;;;;;;;16.20;100.00;101385.88;5240832;28;20064;-72
2022/06/27 01:40:24;;;;;;;11.52;9.80;;;;;;;16.20;100.00;101375.13;5237484;28;20029;-72
2022/06/27 01:42:56;;;;;;;12.32;9.00;;;;;;;16.19;100.00;101362.66;5233617;28;20029;-72
2022/06/27 01:45:30;;;;;;;12.88;9.65;;;;;;;16.18;100.00;101355.56;5234802;28;20024;-72
2022/06/27 01:48:02;;;;;;;11.80;9.00;;;;;;;16.21;100.00;101358.00;5228565;28;20025;-71
2022/06/27 01:50:34;;;;;;;12.73;9.98;;;;;;;16.20;100.00;101362.53;5234972;28;20029;-72
2022/06/27 01:53:06;;;;;;;11.43;9.00;;;;;;;16.19;100.00;101357.28;5236819;28;20029;-71
2022/06/27 01:55:37;;;;;;;13.75;9.63;;;;;;;16.18;100.00;101359.09;5234546;28;20817;-72
2022/06/27 01:58:10;;;;;;;11.98;9.15;;;;;;;16.16;100.00;101360.25;5237658;28;20087;-71
2022/06/27 02:00:41;;;;;;;13.02;10.32;;;;;;;16.17;100.00;101356.56;5233747;28;20033;-71
2022/06/27 02:03:13;;;;;;;12.90;9.35;;;;;;;16.16;100.00;101349.47;5240130;28;20429;-72
2022/06/27 02:05:45;;;;;;;11.27;10.02;;;;;;;16.15;100.00;101351.31;5239196;28;20036;-71
2022/06/27 02:08:20;;;;;;;12.35;9.23;;;;;;;16.12;100.00;101351.59;5244155;28;20029;-72
2022/06/27 02:10:51;;;;;;;12.73;10.10;;;;;;;16.13;100.00;101345.25;5247362;28;20167;-72
2022/06/27 02:13:23;;;;;;;10.40;9.25;;;;;;;16.11;100.00;101349.91;5245734;28;20033;-72
2022/06/27 02:16:16;;;;;;;12.32;9.45;;;;;;;16.15;100.00;101345.09;5250751;28;20052;-72
2022/06/27 02:18:48;;;;;;;14.18;9.68;;;;;;;16.10;100.00;101342.81;5246694;28;20495;-72
2022/06/27 02:21:22;;;;;;;12.93;10.15;;;;;;;16.10;100.00;101339.28;5247835;28;20079;-72
2022/06/27 02:23:55;;;;;;;14.05;9.82;;;;;;;16.13;100.00;101323.69;5247831;28;20033;-72
2022/06/27 02:26:29;;;;;;;13.88;9.98;;;;;;;16.10;100.00;101332.03;5250512;28;20017;-72
2022/06/27 02:29:00;;;;;;;10.57;9.43;;;;;;;16.11;100.00;101322.13;5248787;28;20108;-73
2022/06/27 02:31:32;;;;;;;12.60;9.50;;;;;;;16.08;100.00;101324.09;5242398;28;20017;-72
2022/06/27 02:34:04;;;;;;;13.38;10.32;;;;;;;16.11;100.00;101331.06;5251781;28;20115;-72
2022/06/27 02:36:38;;;;;;;11.95;9.85;;;;;;;16.07;100.00;101329.66;5247586;28;20029;-71
2022/06/27 02:39:16;;;;;;;13.68;10.77;;;;;;;16.09;100.00;101330.38;5245539;28;20033;-71
2022/06/27 02:41:50;;;;;;;15.57;9.93;;;;;;;16.05;100.00;101332.47;5240829;28;20039;-72
2022/06/27 02:44:22;;;;;;;11.57;9.50;;;;;;;16.06;100.00;101325.25;5239263;28;20037;-71
2022/06/27 02:46:54;;;;;;;13.77;9.55;;;;;;;16.06;100.00;101319.88;5235869;28;20025;-72
2022/06/27 02:49:26;;;;;;;12.85;10.48;;;;;;;16.04;100.00;101319.16;5241984;28;21108;-71
2022/06/27 02:52:02;;;;;;;15.30;9.75;;;;;;;16.00;100.00;101310.50;5234613;28;20090;-71
2022/06/27 02:54:42;;;;;;;13.13;10.50;;;;;;;15.98;100.00;101308.97;5238285;28;20053;-71
2022/06/27 02:57:42;;;;;;;12.63;10.50;;;;;;;15.97;100.00;101297.31;5235014;28;20031;-72
2022/06/27 03:00:14;;;;;;;14.00;10.82;;;;;;;15.95;100.00;101279.63;5216585;28;20148;-72
2022/06/27 03:02:46;;;;;;;13.73;10.85;;;;;;;15.88;100.00;101293.66;5230004;28;20059;-72
2022/06/27 03:05:17;;;;;;;13.75;10.50;;;;;;;15.84;100.00;101289.56;5232227;28;20082;-71
2022/06/27 03:07:48;;;;;;;13.48;10.82;;;;;;;15.74;100.00;101280.59;5241476;28;20114;-72
2022/06/27 03:10:21;;;;;;;12.55;10.50;;;;;;;15.68;100.00;101283.84;5236071;28;20041;-71
2022/06/27 03:12:52;;;;;;;15.50;11.07;;;;;;;15.62;100.00;101277.16;5238780;28;20021;-71
2022/06/27 03:15:23;;;;;;;16.40;11.13;;;;;;;15.55;100.00;101280.56;5232959;28;20083;-71
2022/06/27 03:17:55;;;;;;;15.07;11.30;;;;;;;15.51;100.00;101277.28;5230818;28;20037;-71
2022/06/27 03:20:26;;;;;;;13.73;11.25;;;;;;;15.43;100.00;101285.22;5231746;28;20083;-72
2022/06/27 03:22:57;;;;;;;15.75;11.90;;;;;;;15.42;100.00;101289.75;5231075;28;20029;-72
2022/06/27 03:25:28;;;;;;;13.80;11.48;;;;;;;15.37;100.00;101291.16;5230307;28;20451;-71
2022/06/27 03:28:00;;;;;;;14.30;11.00;;;;;;;15.37;100.00;101286.63;5234517;28;20025;-71
2022/06/27 03:30:31;;;;;;;14.85;11.52;;;;;;;15.29;100.00;101279.25;5237841;28;20029;-71
2022/06/27 03:33:03;;;;;;;13.82;11.77;;;;;;;15.26;100.00;101282.22;5242108;28;20035;-71
2022/06/27 03:35:34;;;;;;;16.60;12.05;;;;;;;15.19;100.00;101282.91;5240842;28;20024;-72
2022/06/27 03:38:05;;;;;;;15.15;11.63;;;;;;;15.16;100.00;101284.00;5243490;28;20033;-72
2022/06/27 03:40:37;;;;;;;12.73;11.05;;;;;;;15.15;100.00;101293.06;5236662;28;20025;-71
2022/06/27 03:43:08;;;;;;;14.32;11.05;;;;;;;15.11;100.00;101288.97;5245152;28;20052;-71
2022/06/27 03:45:40;;;;;;;15.15;11.15;;;;;;;15.04;100.00;101279.72;5238304;28;20041;-71
2022/06/27 03:49:59;;;;;;;16.38;12.82;;;;;;;15.09;100.00;101282.84;5244278;28;20024;-72
2022/06/27 03:51:03;;;;;;;13.63;11.68;;;;;;;14.98;100.00;101282.97;5241152;28;20057;-71
2022/06/27 03:53:34;;;;;;;15.43;12.48;;;;;;;15.00;100.00;101292.59;5239341;28;20163;-71
2022/06/27 03:56:05;;;;;;;14.98;12.35;;;;;;;15.03;100.00;101295.00;5241741;28;20045;-71
2022/06/27 03:58:37;;;;;;;14.65;12.38;;;;;;;14.96;100.00;101288.47;5235012;28;20791;-71
2022/06/27 04:01:08;;;;;;;16.17;13.07;;;;;;;14.98;100.00;101299.94;5229577;28;20060;-71
2022/06/27 04:03:39;;;;;;;16.73;12.68;;;;;;;14.87;100.00;101313.47;5233664;28;20033;-71
2022/06/27 04:06:11;;;;;;;14.05;12.50;;;;;;;14.96;100.00;101309.97;5235205;28;20085;-71
2022/06/27 04:08:43;;;;;;;15.82;13.43;;;;;;;14.90;100.00;101303.28;5242784;28;20036;-71
2022/06/27 04:11:14;;;;;;;15.88;14.18;;;;;;;15.00;100.00;101297.97;5236290;28;20056;-71
2022/06/27 04:13:45;;;;;;;19.08;15.15;;;;;;;15.08;100.00;101298.13;5230720;28;20021;-71
2022/06/27 04:16:17;;;;;;;16.63;14.25;;;;;;;15.16;100.00;101299.28;5227705;28;20101;-71
2022/06/27 04:18:48;;;;;;;16.23;13.75;;;;;;;15.21;100.00;101297.06;5239920;28;20968;-71
2022/06/27 04:21:19;;;;;;;20.42;16.23;;;;;;;15.27;100.00;101285.75;5232070;28;20029;-72
2022/06/27 04:23:50;;;;;;;18.17;14.48;;;;;;;15.37;100.00;101280.41;5233129;28;20033;-71
2022/06/27 04:26:22;;;;;;;21.45;14.82;;;;;;;15.47;100.00;101268.69;5235229;28;20037;-71
2022/06/27 04:28:54;;;;;;;18.17;14.10;;;;;;;15.57;100.00;101268.69;5229685;28;20086;-71
2022/06/27 04:31:25;;;;;;;20.55;13.75;;;;;;;15.64;100.00;101269.81;5228700;28;20114;-71
2022/06/27 04:33:57;;;;;;;18.63;15.10;;;;;;;15.66;100.00;101262.44;5230929;28;20036;-71
2022/06/27 04:36:28;;;;;;;20.25;15.55;;;;;;;15.69;100.00;101247.88;5236701;28;20029;-71
2022/06/27 04:39:03;;;;;;;19.20;14.43;;;;;;;15.72;100.00;101233.28;5239139;28;20036;-71
2022/06/27 04:41:35;;;;;;;22.65;15.85;;;;;;;15.72;100.00;101225.22;5234436;28;20096;-71
2022/06/27 04:44:06;;;;;;;18.77;16.17;;;;;;;15.82;100.00;101237.72;5233585;28;21413;-71
2022/06/27 04:46:41;;;;;;;22.90;15.85;;;;;;;15.84;100.00;101248.34;5234803;28;20513;-71
2022/06/27 04:49:14;;;;;;;22.02;16.77;;;;;;;15.90;100.00;101244.22;5234717;28;20085;-71
2022/06/27 04:51:49;;;;;;;24.15;16.52;;;;;;;15.88;100.00;101239.00;5234514;28;20029;-71
2022/06/27 04:54:20;;;;;;;20.75;17.02;;;;;;;15.97;100.00;101253.44;5235197;28;20095;-71
2022/06/27 04:56:53;;;;;;;22.33;18.00;;;;;;;16.00;100.00;101261.22;5233718;28;20018;-71
2022/06/27 04:59:25;;;;;;;20.98;17.30;;;;;;;16.06;100.00;101266.03;5239512;28;20040;-71
2022/06/27 05:01:56;;;;;;;21.77;16.98;;;;;;;16.05;100.00;101258.94;5233049;28;20028;-72
2022/06/27 05:04:30;;;;;;;19.33;17.08;;;;;;;16.09;100.00;101252.31;5237519;28;20032;-71
2022/06/27 05:07:01;;;;;;;22.40;16.88;;;;;;;16.07;100.00;101241.66;5236259;28;20112;-72
2022/06/27 05:09:32;;;;;;;20.48;16.90;;;;;;;16.07;100.00;101238.13;5251069;28;20032;-72
2022/06/27 05:12:04;;;;;;;20.48;17.30;;;;;;;16.07;100.00;101230.91;5239684;28;20487;-71
2022/06/27 05:14:35;;;;;;;19.75;16.92;;;;;;;16.10;100.00;101229.75;5231242;28;20032;-71
2022/06/27 05:17:06;;;;;;;21.25;17.52;;;;;;;16.08;100.00;101227.19;5236336;28;20031;-71
2022/06/27 05:19:38;;;;;;;20.25;17.08;;;;;;;16.11;100.00;101239.53;5232684;28;20025;-72
2022/06/27 05:22:10;;;;;;;20.23;18.02;;;;;;;16.07;100.00;101248.91;5237515;28;20017;-72
2022/06/27 05:24:41;;;;;;;21.15;17.70;;;;;;;16.08;100.00;101254.13;5234255;28;20625;-71
2022/06/27 05:27:12;;;;;;;22.35;17.73;;;;;;;16.10;100.00;101255.84;5239520;28;20021;-72
2022/06/27 05:29:44;;;;;;;20.77;17.85;;;;;;;16.09;100.00;101255.00;5239151;28;20082;-72
2022/06/27 05:32:16;;;;;;;22.00;18.00;;;;;;;16.17;100.00;101254.28;5237957;28;20225;-72
2022/06/27 05:34:48;;;;;;;22.67;18.83;;;;;;;16.15;100.00;101275.09;5232914;28;20502;-71
2022/06/27 05:37:19;;;;;;;21.73;18.23;;;;;;;16.16;100.00;101301.84;5235172;28;20086;-71
2022/06/27 05:39:50;;;;;;;21.70;19.15;;;;;;;16.26;100.00;101315.31;5237398;28;20482;-71
2022/06/27 05:42:22;;;;;;;19.83;17.67;;;;;;;16.39;100.00;101336.56;5243377;28;20058;-71
2022/06/27 05:44:54;;;;;;;22.17;18.92;;;;;;;16.46;100.00;101343.94;5240356;28;20036;-71
2022/06/27 05:47:26;;;;;;;23.63;18.05;;;;;;;16.48;100.00;101351.88;5240264;28;20483;-72
2022/06/27 05:50:02;;;;;;;23.00;18.00;;;;;;;16.51;100.00;101361.50;5240656;28;20024;-71
2022/06/27 05:52:34;;;;;;;24.63;17.75;;;;;;;16.52;100.00;101364.06;5238514;28;20029;-72
2022/06/27 05:55:07;;;;;;;24.13;19.10;;;;;;;16.52;100.00;101380.22;5237265;28;20709;-71
2022/06/27 05:57:39;;;;;;;21.67;17.65;;;;;;;16.55;100.00;101385.34;5238942;28;20475;-72
2022/06/27 06:00:11;;;;;;;21.05;18.50;;;;;;;16.54;100.00;101367.47;5238967;28;20167;-71
2022/06/27 06:02:42;;;;;;;22.77;19.02;;;;;;;16.52;100.00;101372.13;5238181;28;20048;-72
2022/06/27 06:05:14;;;;;;;22.85;18.52;;;;;;;16.63;100.00;101366.59;5240560;28;20570;-72
2022/06/27 06:07:46;;;;;;;21.30;18.92;;;;;;;16.72;100.00;101343.34;5239891;28;20037;-72
2022/06/27 06:10:17;;;;;;;23.42;18.98;;;;;;;16.64;100.00;101345.88;5234083;28;20415;-72
2022/06/27 06:12:50;;;;;;;22.23;18.35;;;;;;;16.69;100.00;101342.78;5240547;28;20055;-72
2022/06/27 06:15:22;;;;;;;23.60;19.92;;;;;;;16.68;100.00;101347.28;5238391;28;20029;-72
2022/06/27 06:17:54;;;;;;;23.05;18.80;;;;;;;16.73;100.00;101360.34;5244540;28;20072;-72
2022/06/27 06:20:26;;;;;;;22.05;19.65;;;;;;;16.72;100.00;101358.63;5242981;28;20025;-72
2022/06/27 06:22:57;;;;;;;21.85;19.33;;;;;;;16.78;100.00;101368.81;5245154;28;20498;-72
2022/06/27 06:25:29;;;;;;;23.00;19.40;;;;;;;16.80;100.00;101393.81;5238891;28;20025;-72
2022/06/27 06:28:02;;;;;;;23.73;19.65;;;;;;;16.83;100.00;101396.22;5244346;28;20203;-72
2022/06/27 06:30:33;;;;;;;24.23;19.50;;;;;;;16.80;100.00;101388.44;5239326;28;20053;-71
2022/06/27 06:33:05;;;;;;;21.70;18.77;;;;;;;16.83;100.00;101383.59;5242702;28;20429;-72
2022/06/27 06:35:37;;;;;;;26.25;17.92;;;;;;;16.84;100.00;101385.31;5241891;28;20790;-72
2022/06/27 06:38:08;;;;;;;24.05;20.02;;;;;;;16.89;100.00;101382.16;5239400;28;20498;-71
2022/06/27 06:40:40;;;;;;;24.02;18.25;;;;;;;16.84;100.00;101368.31;5242415;28;20112;-72
2022/06/27 06:43:11;;;;;;;23.65;18.45;;;;;;;16.87;100.00;101351.81;5237686;28;20547;-71
2022/06/27 06:45:43;;;;;;;20.45;17.80;;;;;;;16.95;100.00;101334.91;5241684;28;20425;-72
2022/06/27 06:48:16;;;;;;;21.20;18.33;;;;;;;16.98;100.00;101318.47;5234956;28;20693;-71
2022/06/27 06:50:47;;;;;;;24.27;17.53;;;;;;;16.97;100.00;101314.06;5233556;28;20056;-72
2022/06/27 06:53:19;;;;;;;25.95;18.85;;;;;;;17.02;100.00;101322.56;5238961;28;20485;-71
2022/06/27 06:55:50;;;;;;;27.58;18.17;;;;;;;17.02;100.00;101312.59;5238526;28;20053;-72
2022/06/27 06:58:22;;;;;;;25.70;19.15;;;;;;;17.04;100.00;101302.53;5230646;28;21601;-72
2022/06/27 07:00:54;;;;;;;24.67;18.50;;;;;;;17.19;100.00;101313.69;5235047;28;20032;-72
2022/06/27 07:03:26;;;;;;;23.13;18.42;;;;;;;17.23;100.00;101323.16;5236049;28;20502;-72
2022/06/27 07:05:58;;;;;;;24.25;18.67;;;;;;;17.37;100.00;101327.22;5244704;28;20032;-72
2022/06/27 07:08:30;;;;;;;24.75;18.58;;;;;;;17.48;100.00;101322.63;5251898;28;20020;-72
2022/06/27 07:11:02;;;;;;;27.63;20.00;;;;;;;17.59;100.00;101307.06;5246815;28;20052;-72
2022/06/27 07:13:33;;;;;;;25.05;19.40;;;;;;;17.69;100.00;101296.22;5236426;28;20040;-72
2022/06/27 07:16:05;;;;;;;23.75;19.58;;;;;;;17.67;100.00;101305.47;5237165;28;20044;-72
2022/06/27 07:18:37;;;;;;;22.95;19.08;;;;;;;17.69;100.00;101322.34;5239816;28;20021;-72
2022/06/27 07:21:09;;;;;;;23.58;19.52;;;;;;;17.76;100.00;101327.00;5241016;28;20037;-72
2022/06/27 07:23:40;;;;;;;25.08;18.63;;;;;;;17.92;100.00;101337.13;5239033;28;20033;-71
2022/06/27 07:26:12;;;;;;;21.27;18.27;;;;;;;17.98;100.00;101352.72;5242498;28;20081;-72
2022/06/27 07:28:45;;;;;;;23.75;19.45;;;;;;;18.15;100.00;101367.22;5240705;28;20029;-72
2022/06/27 07:31:18;;;;;;;23.47;18.47;;;;;;;18.22;100.00;101349.41;5244928;28;20040;-72
2022/06/27 07:33:54;;;;;;;23.95;18.45;;;;;;;18.25;100.00;101342.84;5242287;28;20024;-71
2022/06/27 07:36:26;;;;;;;19.77;17.58;;;;;;;18.68;100.00;101348.41;5245159;28;20029;-71
2022/06/27 07:38:58;;;;;;;22.98;18.35;;;;;;;18.87;100.00;101348.25;5238750;28;20071;-71
2022/06/27 07:41:32;;;;;;;19.27;14.95;;;;;;;19.05;100.00;101350.88;5240727;28;20024;-71
2022/06/27 07:44:03;;;;;;;16.30;14.60;;;;;;;19.28;100.00;101369.25;5240422;28;20035;-72
2022/06/27 07:46:35;;;;;;;16.88;13.07;;;;;;;19.35;97.96;101359.47;5238465;28;20509;-71
2022/06/27 07:49:07;;;;;;;16.42;12.10;;;;;;;19.43;96.78;101361.38;5232149;28;20127;-71
2022/06/27 07:51:38;;;;;;;13.43;11.82;;;;;;;19.52;97.72;101363.09;5242220;28;20071;-71
2022/06/27 07:54:10;;;;;;;16.33;12.57;;;;;;;19.52;96.80;101380.19;5233652;28;20025;-71
2022/06/27 07:56:43;;;;;;;13.45;11.60;;;;;;;19.39;96.94;101379.78;5239106;28;20507;-71
2022/06/27 07:59:15;;;;;;;12.93;10.07;;;;;;;19.34;93.26;101377.56;5235926;28;20242;-71
2022/06/27 08:01:46;;;;;;;13.18;10.45;;;;;;;19.30;98.30;101384.31;5241262;28;20056;-71
2022/06/27 08:04:18;;;;;;;13.10;9.48;;;;;;;19.30;95.69;101397.84;5241400;28;20033;-71
2022/06/27 08:06:50;;;;;;;11.63;9.02;;;;;;;19.35;95.69;101387.38;5241536;28;20028;-71
2022/06/27 08:09:22;;;;;;;14.60;9.45;;;;;;;19.46;94.53;101385.38;5243476;28;20039;-72
2022/06/27 08:11:53;;;;;;;13.23;9.52;;;;;;;19.59;93.53;101391.19;5241115;28;20116;-71
2022/06/27 08:14:25;;;;;;;12.35;8.73;;;;;;;19.81;93.37;101400.63;5234470;28;20024;-72
2022/06/27 08:17:00;;;;;;;13.40;9.77;;;;;;;19.86;90.31;101389.28;5237633;28;20024;-71
2022/06/27 08:19:31;;;;;;;12.35;9.68;;;;;;;19.83;89.66;101382.34;5240036;28;20045;-72
2022/06/27 08:22:04;;;;;;;11.95;9.38;;;;;;;19.87;92.11;101388.28;5238310;28;20475;-72
2022/06/27 08:24:36;;;;;;;11.55;8.13;;;;;;;19.81;88.20;101383.50;5239012;28;20029;-72
2022/06/27 08:27:07;;;;;;;10.38;8.90;;;;;;;19.81;92.45;101394.34;5241125;28;20021;-71
2022/06/27 08:29:41;;;;;;;10.18;8.02;;;;;;;19.85;91.78;101414.66;5239233;28;20479;-71
2022/06/27 08:32:12;;;;;;;11.52;8.23;;;;;;;19.66;90.36;101415.78;5241347;28;20471;-72
2022/06/27 08:34:47;;;;;;;10.90;8.52;;;;;;;19.58;90.95;101419.28;5236820;28;20044;-72
2022/06/27 08:37:19;;;;;;;13.60;9.10;;;;;;;19.51;92.32;101418.25;5241270;28;20044;-72
2022/06/27 08:39:50;;;;;;;11.73;8.57;;;;;;;19.46;90.60;101413.28;5236111;28;20033;-72
2022/06/27 08:42:21;;;;;;;12.60;8.88;;;;;;;19.44;91.85;101407.19;5249812;28;20112;-72
2022/06/27 08:44:53;;;;;;;12.40;8.50;;;;;;;19.49;94.77;101412.16;5235348;28;20033;-71
2022/06/27 08:47:25;;;;;;;12.50;8.68;;;;;;;19.52;96.65;101411.81;5238035;28;20037;-71
2022/06/27 08:49:56;;;;;;;11.57;9.20;;;;;;;19.67;92.39;101415.59;5236560;28;20120;-71
2022/06/27 08:52:28;;;;;;;11.20;9.18;;;;;;;19.69;93.67;101413.56;5239333;28;20138;-71
2022/06/27 08:55:01;;;;;;;12.02;9.05;;;;;;;19.61;93.21;101416.25;5234120;28;20096;-72
2022/06/27 08:57:33;;;;;;;11.90;8.77;;;;;;;19.59;89.57;101413.69;5235350;28;20495;-71
2022/06/27 09:00:06;;;;;;;12.50;8.82;;;;;;;19.72;90.27;101415.16;5236783;28;20087;-71
2022/06/27 09:02:42;;;;;;;12.43;8.65;;;;;;;19.83;90.65;101431.09;5237246;28;20040;-72
2022/06/27 09:05:27;;;;;;;10.40;8.57;;;;;;;19.93;95.96;101447.22;5251252;28;20029;-71
2022/06/27 09:08:02;;;;;;;10.18;9.05;;;;;;;20.08;90.34;101450.97;5252796;28;20028;-72
2022/06/27 09:10:39;;;;;;;10.55;8.93;;;;;;;20.12;91.66;101437.97;5245522;28;20025;-71
2022/06/27 09:13:16;;;;;;;10.40;8.85;;;;;;;20.27;89.45;101449.84;5244077;28;20424;-71
2022/06/27 09:15:52;;;;;;;12.25;9.07;;;;;;;20.39;90.62;101434.09;5242290;28;20483;-72
2022/06/27 09:18:28;;;;;;;10.88;8.45;;;;;;;20.64;86.32;101417.91;5241693;28;20053;-72
2022/06/27 09:21:11;;;;;;;10.00;8.25;;;;;;;20.82;90.38;101426.69;5240777;28;20021;-72
2022/06/27 09:23:49;;;;;;;10.73;7.70;;;;;;;20.93;88.41;101415.47;5241646;28;20557;-72
2022/06/27 09:26:21;;;;;;;8.77;7.07;;;;;;;20.93;85.10;101430.91;5240082;28;20020;-72
2022/06/27 09:29:07;;;;;;;7.65;6.85;;;;;;;21.10;85.93;101434.47;5241485;28;20086;-72
2022/06/27 09:31:39;;;;;;;10.20;6.63;;;;;;;21.00;85.68;101439.19;5242869;28;20028;-71
2022/06/27 09:34:20;;;;;;;8.85;6.13;;;;;;;21.21;81.87;101438.66;5241274;28;20040;-71
2022/06/27 09:36:54;;;;;;;7.93;6.10;;;;;;;21.21;78.96;101439.53;5240691;28;20128;-71
2022/06/27 09:39:34;;;;;;;10.10;5.35;;;;;;;21.31;79.67;101428.47;5245264;28;20067;-72
2022/06/27 09:42:06;;;;;;;8.90;5.72;;;;;;;21.38;77.00;101436.75;5246565;28;20025;-72
2022/06/27 09:44:44;;;;;;;12.15;6.50;;;;;;;21.25;74.88;101426.47;5243726;28;20033;-72
2022/06/27 09:47:18;;;;;;;7.10;5.82;;;;;;;21.46;75.93;101428.66;5244417;28;20483;-72
2022/06/27 09:49:51;;;;;;;7.60;5.70;;;;;;;21.66;75.11;101429.06;5255075;28;20021;-72
2022/06/27 09:52:24;;;;;;;8.38;5.43;;;;;;;21.88;77.90;101428.28;5247577;28;20052;-71
2022/06/27 09:54:56;;;;;;;8.38;5.85;;;;;;;21.96;79.16;101432.84;5244539;28;20325;-72
2022/06/27 09:57:27;;;;;;;8.30;5.03;;;;;;;22.09;74.08;101427.66;5248417;28;20135;-72
2022/06/27 10:00:00;;;;;;;8.05;5.70;;;;;;;22.06;73.32;101433.44;5238379;28;20040;-72
2022/06/27 10:02:32;;;;;;;8.88;6.18;;;;;;;22.01;75.81;101419.53;5245037;28;20063;-72
2022/06/27 10:05:05;;;;;;;10.50;5.57;;;;;;;21.82;71.83;101414.56;5246507;28;20129;-72
2022/06/27 10:07:38;;;;;;;9.85;6.38;;;;;;;21.74;70.44;101415.44;5251288;28;20017;-72
2022/06/27 10:10:09;;;;;;;9.40;5.30;;;;;;;21.91;73.72;101413.50;5242790;28;20479;-72
2022/06/27 10:12:55;;;;;;;9.02;5.20;;;;;;;22.03;75.24;101411.22;5246181;28;20375;-73
2022/06/27 10:15:33;;;;;;;9.05;5.10;;;;;;;22.20;79.98;101407.38;5240045;28;20513;-73
2022/06/27 10:18:04;;;;;;;10.18;5.55;;;;;;;22.36;73.64;101405.59;5242549;28;20872;-72
2022/06/27 10:20:38;;;;;;;7.75;4.55;;;;;;;22.47;74.82;101405.16;5244431;28;20391;-72
2022/06/27 10:23:09;;;;;;;6.55;4.35;;;;;;;22.65;74.03;101407.59;5240046;28;20029;-72
2022/06/27 10:25:42;;;;;;;7.57;4.43;;;;;;;22.69;71.93;101400.75;5241155;28;20082;-72
2022/06/27 10:28:14;;;;;;;10.57;4.32;;;;;;;22.76;72.23;101403.56;5244073;28;20074;-72
2022/06/27 10:30:47;;;;;;;6.53;3.53;;;;;;;22.87;69.57;101406.66;5241869;28;20017;-72
2022/06/27 10:33:18;;;;;;;5.82;3.28;;;;;;;22.88;68.47;101408.38;5248790;28;20033;-72
2022/06/27 10:36:02;;;;;;;6.75;3.30;;;;;;;22.93;71.50;101404.25;5245500;28;20037;-72
2022/06/27 10:38:43;;;;;;;6.90;3.53;;;;;;;22.92;71.16;101403.41;5241659;28;20033;-72
2022/06/27 10:41:17;;;;;;;7.35;2.75;;;;;;;22.77;68.02;101410.69;5240311;28;20025;-71
2022/06/27 10:43:54;;;;;;;7.30;2.88;;;;;;;22.52;69.17;101409.03;5242172;28;21520;-71
2022/06/27 10:46:25;;;;;;;6.47;2.53;;;;;;;22.35;66.92;101420.22;5236855;28;20175;-72
2022/06/27 10:48:58;;;;;;;7.88;2.90;;;;;;;22.43;68.73;101417.44;5242446;28;20289;-72
2022/06/27 10:51:31;;;;;;;6.10;2.70;;;;;;;22.26;68.94;101413.97;5237012;28;20463;-72
2022/06/27 10:54:05;;;;;;;6.63;2.67;;;;;;;22.13;73.31;101420.84;5239457;28;20677;-72
2022/06/27 10:56:44;;;;;;;5.05;2.70;;;;;;;22.09;72.58;101416.78;5235687;28;20029;-72
2022/06/27 10:59:16;;;;;;;5.40;3.08;;;;;;;21.82;67.82;101417.28;5248116;28;20028;-72
2022/06/27 11:01:50;;;;;;;6.65;2.70;;;;;;;21.77;74.96;101419.69;5247574;28;20564;-71
2022/06/27 11:04:24;;;;;;;6.45;3.88;;;;;;;21.68;76.05;101425.13;5239527;28;20032;-72
2022/06/27 11:06:59;;;;;;;8.55;3.70;;;;;;;21.65;72.87;101413.78;5241319;28;20437;-71
2022/06/27 11:09:39;;;;;;;6.18;3.58;;;;;;;21.53;68.09;101424.19;5241431;28;20029;-73
2022/06/27 11:12:12;;;;;;;4.85;2.90;;;;;;;21.71;68.13;101419.38;5236594;28;20120;-72
2022/06/27 11:14:52;;;;;;;6.22;3.38;;;;;;;21.89;72.96;101429.13;5231232;28;20116;-71
2022/06/27 11:17:38;;;;;;;6.75;3.45;;;;;;;21.91;75.21;101422.47;5245735;28;20139;-71
2022/06/27 11:20:14;;;;;;;6.75;3.53;;;;;;;22.16;74.39;101419.63;5239337;28;20471;-72
2022/06/27 11:23:06;;;;;;;8.95;3.40;;;;;;;22.24;72.42;101432.31;5237119;28;20034;-72
2022/06/27 11:25:41;;;;;;;5.85;3.00;;;;;;;22.23;68.67;101436.91;5235169;28;20099;-72
2022/06/27 11:34:01;;;;;;;10.77;4.30;;;;;;;21.75;70.75;101430.72;5240140;28;20546;-71
2022/06/27 11:36:33;;;;;;;6.63;4.00;;;;;;;21.59;74.87;101431.63;5242646;28;20033;-72
2022/06/27 11:39:05;;;;;;;8.55;4.07;;;;;;;21.57;75.49;101409.22;5242413;28;20077;-72
2022/06/27 11:41:38;;;;;;;7.25;4.03;;;;;;;21.88;72.95;101416.56;5234208;28;20056;-71